createdAt,value
2023-04-18T00:02:19.631Z,7.10
2023-04-18T00:04:50.683Z,7.10
2023-04-18T00:07:20.268Z,7.10
2023-04-18T00:09:50.054Z,7.10
2023-04-18T00:12:19.350Z,7.00
2023-04-18T00:14:50.771Z,7.00
2023-04-18T00:17:20.716Z,7.10
2023-04-18T00:19:52.022Z,7.00
2023-04-18T00:22:22.873Z,7.00
2023-04-18T00:24:52.576Z,7.00
2023-04-18T00:27:22.306Z,7.00
2023-04-18T00:29:53.397Z,7.00
2023-04-18T00:32:23.007Z,6.90
2023-04-18T00:34:52.727Z,6.90
2023-04-18T00:37:22.196Z,7.00
2023-04-18T00:39:54.105Z,7.00
2023-04-18T00:42:24.697Z,7.00
2023-04-18T00:44:55.399Z,6.90
2023-04-18T00:47:24.827Z,7.00
2023-04-18T00:49:55.270Z,7.00
2023-04-18T00:52:27.439Z,7.00
2023-04-18T00:54:57.876Z,7.00
2023-04-18T00:57:27.347Z,7.00
2023-04-18T00:59:58.729Z,7.10
2023-04-18T01:02:30.884Z,7.00
2023-04-18T01:05:01.805Z,7.00
2023-04-18T01:07:33.823Z,7.10
2023-04-18T01:10:04.420Z,7.10
2023-04-18T01:12:33.659Z,7.10
2023-04-18T01:15:06.012Z,7.10
2023-04-18T01:17:36.030Z,7.20
2023-04-18T01:20:06.826Z,7.20
2023-04-18T01:22:36.152Z,7.20
2023-04-18T01:25:11.535Z,7.20
2023-04-18T01:27:40.953Z,7.20
2023-04-18T01:30:11.956Z,7.20
2023-04-18T01:32:41.499Z,7.20
2023-04-18T01:35:11.946Z,7.20
2023-04-18T01:37:41.568Z,7.20
2023-04-18T01:40:14.182Z,7.20
2023-04-18T01:42:43.564Z,7.20
2023-04-18T01:45:14.465Z,7.20
2023-04-18T01:47:44.407Z,7.20
2023-04-18T01:50:14.632Z,7.20
2023-04-18T01:52:43.934Z,7.20
2023-04-18T01:55:15.460Z,7.20
2023-04-18T01:57:44.854Z,7.20
2023-04-18T02:00:16.502Z,7.30
2023-04-18T02:02:45.536Z,7.30
2023-04-18T02:05:15.518Z,7.30
2023-04-18T02:07:44.828Z,7.30
2023-04-18T02:10:17.074Z,7.30
2023-04-18T02:12:46.475Z,7.30
2023-04-18T02:15:16.237Z,7.30
2023-04-18T02:17:45.956Z,7.30
2023-04-18T02:20:16.043Z,7.40
2023-04-18T02:22:45.758Z,7.40
2023-04-18T02:25:16.852Z,7.30
2023-04-18T02:27:46.136Z,7.30
2023-04-18T02:30:16.790Z,7.30
2023-04-18T02:32:46.225Z,7.40
2023-04-18T02:35:15.917Z,7.30
2023-04-18T02:37:45.459Z,7.40
2023-04-18T02:40:16.924Z,7.40
2023-04-18T02:42:46.607Z,7.40
2023-04-18T02:45:16.516Z,7.40
2023-04-18T02:47:54.792Z,7.40
2023-04-18T02:50:27.289Z,7.40
2023-04-18T02:52:57.371Z,7.40
2023-04-18T02:55:29.062Z,7.30
2023-04-18T02:57:58.873Z,7.40
2023-04-18T03:00:28.738Z,7.30
2023-04-18T03:02:58.261Z,7.40
2023-04-18T03:05:28.176Z,7.30
2023-04-18T03:07:57.575Z,7.30
2023-04-18T03:10:28.669Z,7.30
2023-04-18T03:12:58.432Z,7.30
2023-04-18T03:15:31.317Z,7.40
2023-04-18T03:18:00.839Z,7.40
2023-04-18T03:20:31.172Z,7.30
2023-04-18T03:23:00.663Z,7.30
2023-04-18T03:25:32.279Z,7.40
2023-04-18T03:28:01.882Z,7.30
2023-04-18T03:30:32.089Z,7.30
2023-04-18T03:33:03.065Z,7.40
2023-04-18T03:35:33.326Z,7.40
2023-04-18T03:38:02.576Z,7.40
2023-04-18T03:40:33.742Z,7.40
2023-04-18T03:43:03.513Z,7.30
2023-04-18T03:45:33.623Z,7.40
2023-04-18T03:48:03.112Z,7.30
2023-04-18T03:50:32.719Z,7.20
2023-04-18T03:53:02.082Z,7.20
2023-04-18T03:55:33.778Z,7.20
2023-04-18T03:58:03.054Z,7.20
2023-04-18T04:00:33.104Z,7.10
2023-04-18T04:03:02.811Z,7.20
2023-04-18T04:05:32.840Z,7.20
2023-04-18T04:08:02.186Z,7.20
2023-04-18T04:10:33.391Z,7.20
2023-04-18T04:13:02.800Z,7.30
2023-04-18T04:15:33.039Z,7.30
2023-04-18T04:18:02.387Z,7.40
2023-04-18T04:20:32.498Z,7.50
2023-04-18T04:23:02.360Z,7.40
2023-04-18T04:25:34.175Z,7.40
2023-04-18T04:28:03.501Z,7.50
2023-04-18T04:30:33.834Z,7.40
2023-04-18T04:33:03.686Z,7.40
2023-04-18T04:35:35.048Z,7.30
2023-04-18T04:38:04.782Z,7.30
2023-04-18T04:40:35.836Z,7.30
2023-04-18T04:43:05.205Z,7.30
2023-04-18T04:45:35.357Z,7.30
2023-04-18T04:48:05.172Z,7.30
2023-04-18T04:50:38.227Z,7.30
2023-04-18T04:53:08.451Z,7.40
2023-04-18T04:55:40.009Z,7.40
2023-04-18T04:58:09.374Z,7.50
2023-04-18T05:00:39.530Z,7.50
2023-04-18T05:03:09.275Z,7.50
2023-04-18T05:05:39.361Z,7.60
2023-04-18T05:08:08.797Z,7.60
2023-04-18T05:10:40.371Z,7.70
2023-04-18T05:13:09.565Z,7.70
2023-04-18T05:15:39.555Z,7.70
2023-04-18T05:18:09.047Z,7.90
2023-04-18T05:20:38.698Z,7.90
2023-04-18T05:23:08.188Z,8.00
2023-04-18T05:25:38.518Z,7.90
2023-04-18T05:28:09.771Z,8.00
2023-04-18T05:30:40.084Z,8.10
2023-04-18T05:33:09.345Z,8.10
2023-04-18T05:35:39.175Z,8.20
2023-04-18T05:38:08.458Z,8.20
2023-04-18T05:40:38.175Z,8.30
2023-04-18T05:43:09.721Z,8.30
2023-04-18T05:45:39.859Z,8.40
2023-04-18T05:48:09.257Z,8.40
2023-04-18T05:50:39.102Z,8.50
2023-04-18T05:53:08.661Z,8.50
2023-04-18T05:55:40.708Z,8.50
2023-04-18T05:58:11.417Z,8.60
2023-04-18T06:00:41.047Z,8.50
2023-04-18T06:03:11.292Z,8.60
2023-04-18T06:05:41.674Z,8.60
2023-04-18T06:08:11.451Z,8.60
2023-04-18T06:10:41.532Z,8.50
2023-04-18T06:13:12.599Z,8.50
2023-04-18T06:15:42.357Z,8.50
2023-04-18T06:18:11.752Z,8.50
2023-04-18T06:20:42.404Z,8.60
2023-04-18T06:23:12.085Z,8.60
2023-04-18T06:25:43.358Z,8.70
2023-04-18T06:28:13.805Z,8.80
2023-04-18T06:30:43.424Z,8.90
2023-04-18T06:33:12.658Z,9.00
2023-04-18T06:35:43.358Z,9.00
2023-04-18T06:38:13.070Z,9.00
2023-04-18T06:40:42.796Z,9.10
2023-04-18T06:43:12.105Z,9.20
2023-04-18T06:45:43.268Z,9.30
2023-04-18T06:48:12.678Z,9.30
2023-04-18T06:50:42.809Z,9.30
2023-04-18T06:53:12.816Z,9.40
2023-04-18T06:55:43.156Z,9.40
2023-04-18T06:58:13.985Z,9.40
2023-04-18T07:00:47.937Z,9.60
2023-04-18T07:03:17.297Z,9.50
2023-04-18T07:05:47.203Z,9.70
2023-04-18T07:08:16.453Z,9.50
2023-04-18T07:10:46.938Z,9.40
2023-04-18T07:13:16.374Z,9.40
2023-04-18T07:15:47.814Z,9.50
2023-04-18T07:18:30.245Z,9.60
2023-04-18T07:21:07.934Z,9.80
2023-04-18T07:23:37.676Z,10.00
2023-04-18T07:26:07.413Z,10.00
2023-04-18T07:28:36.861Z,10.20
2023-04-18T07:31:11.612Z,10.40
2023-04-18T07:33:41.130Z,10.40
2023-04-18T07:36:11.126Z,10.30
2023-04-18T07:38:40.990Z,10.30
2023-04-18T07:41:10.951Z,10.40
2023-04-18T07:43:40.760Z,10.40
2023-04-18T07:46:12.224Z,10.50
2023-04-18T07:48:41.637Z,10.60
2023-04-18T07:51:11.386Z,10.60
2023-04-18T07:53:41.299Z,10.60
2023-04-18T07:56:12.716Z,10.60
2023-04-18T07:58:42.174Z,10.60
2023-04-18T08:01:15.542Z,10.70
2023-04-18T08:03:45.237Z,10.70
2023-04-18T08:06:15.294Z,10.70
2023-04-18T08:08:44.938Z,10.70
2023-04-18T08:11:14.824Z,10.70
2023-04-18T08:13:44.177Z,10.70
2023-04-18T08:16:17.363Z,10.70
2023-04-18T08:18:46.933Z,10.70
2023-04-18T08:21:16.695Z,10.70
2023-04-18T08:23:46.204Z,10.60
2023-04-18T08:26:16.047Z,10.50
2023-04-18T08:28:46.590Z,10.60
2023-04-18T08:31:17.864Z,10.70
2023-04-18T08:33:47.228Z,10.80
2023-04-18T08:36:16.809Z,11.00
2023-04-18T08:38:46.030Z,11.20
2023-04-18T08:41:17.596Z,11.30
2023-04-18T08:43:49.992Z,11.40
2023-04-18T08:46:21.855Z,11.30
2023-04-18T08:48:51.651Z,11.30
2023-04-18T08:51:22.190Z,11.40
2023-04-18T08:53:51.909Z,11.50
2023-04-18T08:56:22.618Z,11.40
2023-04-18T08:58:52.582Z,11.40
2023-04-18T09:01:24.986Z,11.50
2023-04-18T09:03:55.563Z,11.50
2023-04-18T09:06:25.546Z,11.70
2023-04-18T09:09:00.527Z,11.60
2023-04-18T09:11:34.645Z,11.50
2023-04-18T09:14:03.940Z,11.40
2023-04-18T09:16:47.577Z,11.30
2023-04-18T09:19:19.210Z,11.30
2023-04-18T09:21:58.269Z,11.30
2023-04-18T09:24:28.946Z,11.30
2023-04-18T09:27:00.035Z,11.20
2023-04-18T09:29:47.149Z,11.40
2023-04-18T09:32:33.545Z,11.60
2023-04-18T09:35:05.683Z,11.50
2023-04-18T09:37:35.620Z,11.60
2023-04-18T09:40:19.621Z,11.20
2023-04-18T09:42:49.654Z,11.30
2023-04-18T09:45:18.889Z,11.20
2023-04-18T09:47:50.387Z,11.10
2023-04-18T09:50:21.025Z,11.30
2023-04-18T09:52:51.000Z,11.30
2023-04-18T09:55:21.243Z,11.30
2023-04-18T09:57:51.836Z,11.40
2023-04-18T10:00:25.594Z,11.50
2023-04-18T10:02:59.430Z,11.60
2023-04-18T10:05:29.968Z,11.90
2023-04-18T10:08:00.168Z,11.70
2023-04-18T10:10:29.739Z,11.70
2023-04-18T10:13:01.330Z,11.50
2023-04-18T10:15:31.279Z,11.40
2023-04-18T10:18:06.086Z,11.50
2023-04-18T10:20:36.413Z,11.70
2023-04-18T10:23:37.012Z,11.50
2023-04-18T10:26:07.410Z,11.70
2023-04-18T10:28:55.101Z,11.80
2023-04-18T10:31:26.176Z,11.70
2023-04-18T10:36:32.668Z,11.80
2023-04-18T10:39:04.697Z,11.70
2023-04-18T10:41:35.084Z,11.70
2023-04-18T10:44:27.359Z,11.70
2023-04-18T10:47:21.693Z,11.80
2023-04-18T10:50:01.562Z,12.20
2023-04-18T10:52:31.888Z,12.40
2023-04-18T10:55:11.705Z,12.70
2023-04-18T10:57:42.576Z,12.80
2023-04-18T11:00:15.019Z,13.60
2023-04-18T11:02:52.602Z,13.90
2023-04-18T11:05:26.431Z,14.10
2023-04-18T11:07:56.320Z,14.60
2023-04-18T11:10:27.159Z,14.60
2023-04-18T11:12:57.704Z,15.00
2023-04-18T11:15:29.691Z,15.30
2023-04-18T11:18:02.468Z,15.30
2023-04-18T11:20:47.557Z,15.20
2023-04-18T11:23:20.899Z,14.90
2023-04-18T11:25:52.218Z,15.00
2023-04-18T11:28:25.204Z,15.20
2023-04-18T11:30:59.106Z,15.20
2023-04-18T11:33:30.670Z,15.40
2023-04-18T11:36:01.936Z,15.40
2023-04-18T11:38:32.384Z,15.70
2023-04-18T11:41:04.708Z,15.80
2023-04-18T11:43:34.837Z,15.90
2023-04-18T11:46:04.612Z,15.90
2023-04-18T11:48:37.815Z,15.80
2023-04-18T11:51:09.607Z,15.50
2023-04-18T11:53:40.598Z,15.00
2023-04-18T11:56:10.090Z,14.90
2023-04-18T11:58:39.733Z,14.50
2023-04-18T12:01:19.837Z,14.60
2023-04-18T12:04:02.978Z,14.40
2023-04-18T12:06:48.881Z,14.40
2023-04-18T12:09:19.000Z,14.70
2023-04-18T12:11:59.848Z,14.70
2023-04-18T12:14:30.353Z,15.00
2023-04-18T12:16:59.662Z,15.20
2023-04-18T12:19:30.818Z,15.70
2023-04-18T12:22:03.384Z,16.20
2023-04-18T12:24:33.441Z,16.50
2023-04-18T12:27:02.913Z,16.80
2023-04-18T12:29:32.986Z,16.40
2023-04-18T12:32:02.650Z,15.90
2023-04-18T12:34:32.336Z,16.10
2023-04-18T12:37:04.685Z,16.00
2023-04-18T12:39:34.659Z,15.70
2023-04-18T12:42:04.029Z,16.30
2023-04-18T12:44:33.999Z,16.60
2023-04-18T12:47:03.384Z,15.80
2023-04-18T12:49:33.997Z,15.60
2023-04-18T12:52:05.012Z,15.60
2023-04-18T12:54:37.829Z,15.20
2023-04-18T12:57:07.612Z,15.40
2023-04-18T12:59:37.354Z,15.70
2023-04-18T13:02:07.143Z,15.60
2023-04-18T13:04:37.395Z,15.80
2023-04-18T13:07:08.229Z,15.80
2023-04-18T13:09:38.710Z,15.90
2023-04-18T13:12:09.003Z,15.40
2023-04-18T13:14:38.276Z,15.10
2023-04-18T13:17:07.716Z,15.10
2023-04-18T13:19:37.922Z,15.40
2023-04-18T13:22:08.735Z,15.50
2023-04-18T13:24:39.028Z,15.90
2023-04-18T13:27:35.768Z,15.80
2023-04-18T13:30:08.612Z,16.00
2023-04-18T13:32:39.408Z,15.90
2023-04-18T13:35:09.817Z,15.50
2023-04-18T13:37:41.196Z,15.60
2023-04-18T13:40:11.477Z,15.40
2023-04-18T13:42:41.338Z,14.70
2023-04-18T13:45:11.770Z,14.50
2023-04-18T13:47:41.275Z,14.80
2023-04-18T13:50:11.700Z,14.80
2023-04-18T13:52:42.507Z,14.90
2023-04-18T13:55:12.662Z,15.10
2023-04-18T13:57:41.884Z,14.70
2023-04-18T14:00:14.465Z,14.80
2023-04-18T14:02:43.867Z,14.70
2023-04-18T14:05:13.588Z,14.30
2023-04-18T14:07:44.800Z,13.80
2023-04-18T14:10:14.471Z,13.30
2023-04-18T14:12:43.921Z,13.20
2023-04-18T14:15:13.924Z,13.10
2023-04-18T14:17:45.547Z,12.80
2023-04-18T14:20:19.644Z,12.50
2023-04-18T14:22:53.153Z,12.40
2023-04-18T14:25:23.105Z,12.30
2023-04-18T14:28:08.920Z,12.10
2023-04-18T14:30:39.333Z,12.00
2023-04-18T14:33:09.787Z,11.80
2023-04-18T14:35:39.795Z,11.70
2023-04-18T14:38:11.422Z,11.70
2023-04-18T14:40:41.320Z,11.60
2023-04-18T14:43:10.589Z,11.40
2023-04-18T14:45:40.721Z,11.40
2023-04-18T14:48:10.807Z,11.20
2023-04-18T14:50:41.030Z,11.20
2023-04-18T14:53:12.160Z,11.10
2023-04-18T14:55:41.880Z,11.10
2023-04-18T14:58:11.183Z,11.10
2023-04-18T15:00:41.293Z,11.20
2023-04-18T15:03:11.451Z,11.30
2023-04-18T15:05:43.347Z,11.20
2023-04-18T15:08:14.807Z,11.20
2023-04-18T15:10:44.928Z,11.30
2023-04-18T15:13:14.192Z,11.20
2023-04-18T15:15:44.753Z,11.20
2023-04-18T15:18:14.162Z,11.20
2023-04-18T15:20:43.848Z,11.30
2023-04-18T15:23:15.115Z,11.20
2023-04-18T15:25:46.753Z,11.00
2023-04-18T15:28:16.500Z,11.00
2023-04-18T15:30:46.619Z,10.90
2023-04-18T15:33:17.753Z,10.90
2023-04-18T15:35:47.648Z,10.90
2023-04-18T15:38:18.540Z,10.70
2023-04-18T15:40:48.250Z,10.70
2023-04-18T15:43:18.258Z,10.60
2023-04-18T15:45:47.920Z,10.40
2023-04-18T15:48:17.337Z,10.40
2023-04-18T15:50:52.407Z,10.40
2023-04-18T15:53:23.432Z,10.40
2023-04-18T15:55:54.113Z,10.50
2023-04-18T15:58:24.309Z,10.40
2023-04-18T16:00:54.034Z,10.50
2023-04-18T16:03:24.229Z,10.50
2023-04-18T16:05:54.075Z,10.50
2023-04-18T16:08:24.937Z,10.40
2023-04-18T16:10:54.895Z,10.30
2023-04-18T16:13:24.203Z,10.20
2023-04-18T16:15:53.945Z,10.10
2023-04-18T16:18:23.214Z,10.10
2023-04-18T16:20:53.354Z,10.10
2023-04-18T16:23:24.295Z,10.10
2023-04-18T16:25:55.115Z,10.10
2023-04-18T16:28:24.527Z,10.00
2023-04-18T16:30:55.712Z,9.90
2023-04-18T16:33:26.317Z,9.80
2023-04-18T16:35:58.410Z,9.70
2023-04-18T16:38:29.180Z,9.60
2023-04-18T16:41:00.876Z,9.50
2023-04-18T16:43:31.330Z,9.50
2023-04-18T16:46:00.995Z,9.50
2023-04-18T16:48:30.575Z,9.50
2023-04-18T16:51:00.807Z,9.40
2023-04-18T16:53:31.671Z,9.30
2023-04-18T16:56:01.914Z,9.20
2023-04-18T16:58:31.297Z,9.20
2023-04-18T17:01:02.722Z,9.10
2023-04-18T17:03:32.084Z,9.20
2023-04-18T17:06:02.496Z,9.10
2023-04-18T17:08:34.004Z,9.10
2023-04-18T17:11:03.779Z,9.10
2023-04-18T17:13:33.208Z,9.00
2023-04-18T17:16:02.906Z,8.90
2023-04-18T17:18:32.223Z,8.70
2023-04-18T17:21:02.220Z,8.60
2023-04-18T17:23:33.248Z,8.60
2023-04-18T17:26:03.397Z,8.50
2023-04-18T17:28:32.870Z,8.40
2023-04-18T17:31:02.972Z,8.20
2023-04-18T17:33:32.493Z,8.00
2023-04-18T17:36:03.674Z,7.90
2023-04-18T17:38:35.921Z,7.70
2023-04-18T17:41:06.433Z,7.60
2023-04-18T17:43:35.822Z,7.60
2023-04-18T17:46:05.657Z,7.50
2023-04-18T17:48:35.109Z,7.40
2023-04-18T17:51:05.112Z,7.30
2023-04-18T17:53:36.027Z,7.20
2023-04-18T17:56:06.496Z,7.20
2023-04-18T17:58:35.971Z,7.10
2023-04-18T18:01:06.234Z,7.10
2023-04-18T18:03:36.326Z,7.00
2023-04-18T18:06:06.145Z,7.00
2023-04-18T18:08:37.037Z,7.00
2023-04-18T18:11:07.209Z,6.90
2023-04-18T18:13:37.038Z,6.90
2023-04-18T18:16:07.724Z,6.90
2023-04-18T18:18:37.154Z,6.90
2023-04-18T18:21:06.962Z,6.90
2023-04-18T18:23:38.205Z,6.80
2023-04-18T18:26:09.986Z,6.80
2023-04-18T18:28:38.934Z,6.80
2023-04-18T18:31:08.675Z,6.70
2023-04-18T18:33:38.426Z,6.70
2023-04-18T18:36:08.356Z,6.70
2023-04-18T18:38:39.033Z,6.70
2023-04-18T18:41:08.266Z,6.70
2023-04-18T18:43:37.756Z,6.60
2023-04-18T18:46:07.505Z,6.60
2023-04-18T18:48:39.386Z,6.60
2023-04-18T18:51:09.736Z,6.60
2023-04-18T18:53:40.799Z,6.60
2023-04-18T18:56:10.575Z,6.50
2023-04-18T18:58:40.711Z,6.50
2023-04-18T19:01:11.653Z,6.50
2023-04-18T19:03:41.084Z,6.40
2023-04-18T19:06:11.317Z,6.40
2023-04-18T19:08:42.229Z,6.40
2023-04-18T19:11:12.973Z,6.40
2023-04-18T19:13:42.527Z,6.40
2023-04-18T19:16:12.170Z,6.30
2023-04-18T19:18:41.753Z,6.30
2023-04-18T19:21:11.508Z,6.30
2023-04-18T19:23:42.710Z,6.30
2023-04-18T19:26:12.383Z,6.30
2023-04-18T19:28:41.855Z,6.20
2023-04-18T19:31:12.109Z,6.20
2023-04-18T19:33:41.487Z,6.20
2023-04-18T19:36:11.144Z,6.20
2023-04-18T19:38:42.066Z,6.20
2023-04-18T19:41:11.744Z,6.10
2023-04-18T19:43:42.774Z,6.10
2023-04-18T19:46:13.018Z,6.10
2023-04-18T19:48:42.689Z,6.10
2023-04-18T19:51:12.435Z,6.10
2023-04-18T19:53:43.198Z,6.10
2023-04-18T19:56:14.466Z,6.00
2023-04-18T19:58:46.965Z,6.00
2023-04-18T20:01:17.946Z,6.00
2023-04-18T20:03:47.657Z,6.00
2023-04-18T20:06:18.459Z,5.90
2023-04-18T20:08:49.436Z,5.90
2023-04-18T20:11:19.423Z,5.90
2023-04-18T20:13:48.688Z,5.90
2023-04-18T20:16:19.019Z,5.80
2023-04-18T20:18:49.430Z,5.80
2023-04-18T20:21:19.546Z,5.80
2023-04-18T20:23:50.244Z,5.80
2023-04-18T20:26:20.013Z,5.80
2023-04-18T20:28:49.282Z,5.70
2023-04-18T20:31:20.702Z,5.70
2023-04-18T20:33:50.527Z,5.70
2023-04-18T20:36:20.202Z,5.70
2023-04-18T20:38:50.994Z,5.60
2023-04-18T20:41:24.389Z,5.60
2023-04-18T20:43:53.977Z,5.60
2023-04-18T20:46:23.702Z,5.60
2023-04-18T20:48:53.229Z,5.50
2023-04-18T20:51:23.381Z,5.50
2023-04-18T20:53:54.271Z,5.50
2023-04-18T20:56:24.348Z,5.50
2023-04-18T20:58:53.618Z,5.50
2023-04-18T21:01:23.441Z,5.50
2023-04-18T21:03:53.521Z,5.50
2023-04-18T21:06:23.450Z,5.30
2023-04-18T21:08:54.676Z,5.40
2023-04-18T21:11:24.454Z,5.40
2023-04-18T21:13:53.746Z,5.40
2023-04-18T21:16:24.242Z,5.30
2023-04-18T21:18:54.825Z,5.30
2023-04-18T21:21:24.596Z,5.30
2023-04-18T21:23:55.304Z,5.20
2023-04-18T21:26:24.593Z,5.30
2023-04-18T21:28:55.275Z,5.20
2023-04-18T21:31:25.018Z,5.20
2023-04-18T21:33:55.258Z,5.20
2023-04-18T21:36:25.431Z,5.10
2023-04-18T21:38:56.838Z,5.10
2023-04-18T21:41:27.237Z,5.10
2023-04-18T21:43:56.577Z,5.10
2023-04-18T21:46:26.598Z,5.10
2023-04-18T21:48:56.193Z,5.00
2023-04-18T21:51:27.584Z,5.00
2023-04-18T21:53:59.301Z,5.00
2023-04-18T21:56:29.074Z,5.00
2023-04-18T21:58:58.557Z,5.00
2023-04-18T22:01:28.827Z,5.00
2023-04-18T22:03:58.424Z,5.00
2023-04-18T22:06:28.672Z,5.00
2023-04-18T22:08:59.624Z,5.00
2023-04-18T22:11:29.443Z,5.00
2023-04-18T22:14:00.681Z,5.00
2023-04-18T22:16:30.953Z,5.00
2023-04-18T22:19:01.584Z,5.00
2023-04-18T22:21:31.608Z,5.00
2023-04-18T22:24:02.363Z,5.00
2023-04-18T22:26:32.086Z,5.00
2023-04-18T22:29:01.309Z,5.00
2023-04-18T22:31:31.322Z,5.00
2023-04-18T22:34:00.861Z,5.00
2023-04-18T22:36:31.447Z,5.00
2023-04-18T22:39:02.342Z,5.00
2023-04-18T22:41:32.011Z,5.00
2023-04-18T22:44:01.551Z,5.00
2023-04-18T22:46:33.165Z,5.00
2023-04-18T22:49:02.480Z,5.00
2023-04-18T22:51:32.862Z,5.00
2023-04-18T22:54:03.623Z,5.00
2023-04-18T22:56:33.649Z,5.00
2023-04-18T22:59:03.059Z,5.10
2023-04-18T23:01:33.252Z,5.10
2023-04-18T23:04:02.762Z,5.10
2023-04-18T23:06:33.097Z,5.10
2023-04-18T23:09:05.442Z,5.20
2023-04-18T23:11:35.486Z,5.20
2023-04-18T23:14:05.042Z,5.20
2023-04-18T23:16:34.901Z,5.20
2023-04-18T23:19:04.946Z,5.30
2023-04-18T23:21:35.318Z,5.30
2023-04-18T23:24:06.509Z,5.40
2023-04-18T23:26:36.308Z,5.40
2023-04-18T23:29:05.961Z,5.50
2023-04-18T23:31:35.819Z,5.50
2023-04-18T23:34:05.758Z,5.60
2023-04-18T23:36:36.231Z,5.60
2023-04-18T23:39:07.390Z,5.70
2023-04-18T23:41:37.448Z,5.70
2023-04-18T23:44:07.373Z,5.80
2023-04-18T23:46:37.563Z,5.80
2023-04-18T23:49:06.960Z,5.90
2023-04-18T23:51:37.416Z,5.90
2023-04-18T23:54:08.416Z,6.00
2023-04-18T23:56:38.729Z,6.00
2023-04-18T23:59:08.327Z,6.00
